Andover, Iowa
Current Conditions -  °F | °C
As of 4:35 AM on Sunday 26 Oct 2014 (Local Time) from KSFY Reporting Station
Clear Clear  
Wind Chill: 37°   Ceiling: Unl
Heat Index: 37°   Visibility: 10mi
Dew Point: 35°   Wind: 3mph
Humidity: 93%   Direction: 10°N
Pressure: 30.04"   Gusts: NA
Location:  41.98°N, 90.25°W
Report Text: KSFY 260935Z AUTO 01003KT 10SM CLR 03/02 A3004 RMK AO2 T00260016
Loading
Personal Weather Stations






























Interactive Weather Map New forecast layout! Learn more

10-Day Weather Forecast

Advertisements
Track Severe Weather on mobile